»·PEaware :: N256Z L70-KLAS

N256Z :: L70-KLAS

FLIGHT INFORMATION

Flight Status: Arrived
Operator: Privately registered:
United States
More flights under this callsign
Pilot: Gregory A. (9731)
Aircraft: PIPER PA-46-500TP MALIBU MERIDIAN
(P46T)
More flights by this aircraft type
Origin: L70 Agua Dulce
United States
Destination: KLAS McCarran Intl
United States
More flights between these airports :: More routes between these airports
Route: + PMD DAG CRESO4
File this flight plan on PilotEdge
Remarks: Aircraft is actually a turboprop conversion of a Piper Malibu Mirage - a JetProp DLX callsign Jet Prop
Altitude:
(Current/Filed)
230ft
Speed:
(Current/Filed)
260kts
Departed: 09-Jun-19 06:17 PM
Arrived: 09-Jun-19 07:08 PM
Distance/Time
Traveled:
181nm/0:51
Distance/Time
To Go:
Arrived

Flight Plot

Page will automatically refresh every two minutes.

Flight plan parsing failed; only flown route is shown


Map Options




Map Legend


Flown Route
Filed Route
Departure Airport
Arrival Airport
Navaid (VOR, NDB)
Fix

Horizontal Profiles

Position Reports

Time Latitude Longitude Heading Altitude Ground
Speed
09-Jun-19 17:57 34.503029 -118.314940 324 2606ft 1kts
09-Jun-19 17:58 34.502852 -118.314787 324 2606ft 0kts
09-Jun-19 17:59 34.502852 -118.314787 324 2606ft 0kts
09-Jun-19 18:00 34.502852 -118.314787 324 2606ft 0kts
09-Jun-19 18:01 34.502852 -118.314787 324 2606ft 0kts
09-Jun-19 18:02 34.502904 -118.314833 324 2606ft 0kts
09-Jun-19 18:03 34.502908 -118.314836 324 2606ft 0kts
09-Jun-19 18:04 34.502911 -118.314838 324 2606ft 0kts
09-Jun-19 18:05 34.502915 -118.314842 323 2606ft 0kts
09-Jun-19 18:06 34.502918 -118.314844 323 2606ft 0kts
09-Jun-19 18:07 34.502921 -118.314847 323 2606ft 0kts
09-Jun-19 18:08 34.502925 -118.314850 323 2606ft 0kts
09-Jun-19 18:09 34.502928 -118.314853 323 2606ft 0kts
09-Jun-19 18:10 34.502931 -118.314856 323 2606ft 0kts
09-Jun-19 18:11 34.502935 -118.314859 323 2606ft 0kts
09-Jun-19 18:12 34.502945 -118.314961 237 2606ft 0kts
09-Jun-19 18:13 34.501198 -118.317721 233 2606ft 18kts
09-Jun-19 18:14 34.500021 -118.318753 54 2606ft 0kts
09-Jun-19 18:15 34.500489 -118.317989 50 2606ft 34kts
09-Jun-19 18:16 34.517260 -118.286967 58 3640ft 160kts
09-Jun-19 18:17 34.540621 -118.240889 57 6071ft 175kts
09-Jun-19 18:18 34.567563 -118.188482 56 8486ft 183kts
09-Jun-19 18:19 34.594254 -118.136563 56 10866ft 179kts
09-Jun-19 18:20 34.620953 -118.084500 56 13252ft 182kts
09-Jun-19 18:21 34.639419 -118.027633 72 15513ft 178kts
09-Jun-19 18:22 34.654054 -117.965999 73 17794ft 203kts
09-Jun-19 18:23 34.669743 -117.897689 73 20071ft 221kts
09-Jun-19 18:24 34.686801 -117.823002 73 22351ft 233kts
09-Jun-19 18:25 34.705792 -117.739655 73 22966ft 283kts
09-Jun-19 18:26 34.727078 -117.645626 73 22955ft 292kts
09-Jun-19 18:27 34.748937 -117.548636 73 22956ft 299kts
09-Jun-19 18:28 34.770947 -117.450533 73 22957ft 302kts
09-Jun-19 18:29 34.792994 -117.351785 73 22956ft 303kts
09-Jun-19 18:30 34.814975 -117.252945 73 22975ft 302kts
09-Jun-19 18:31 34.836703 -117.154779 73 22975ft 300kts
09-Jun-19 18:32 34.858341 -117.056568 73 22950ft 300kts
09-Jun-19 18:33 34.879827 -116.958710 73 22940ft 299kts
09-Jun-19 18:34 34.901166 -116.861085 73 22939ft 298kts
09-Jun-19 18:35 34.922458 -116.763263 73 22939ft 298kts
09-Jun-19 18:36 34.943598 -116.665715 73 22939ft 298kts
09-Jun-19 18:37 34.969919 -116.570128 63 22941ft 296kts
09-Jun-19 18:38 35.007389 -116.479248 60 22173ft 298kts
09-Jun-19 18:39 35.043876 -116.395428 59 21165ft 266kts
09-Jun-19 18:40 35.078297 -116.317247 59 20161ft 257kts
09-Jun-19 18:41 35.112156 -116.240510 60 19160ft 255kts
09-Jun-19 18:42 35.145657 -116.164469 60 18162ft 254kts
09-Jun-19 18:43 35.178935 -116.088757 60 17164ft 252kts
09-Jun-19 18:44 35.211393 -116.014748 60 16160ft 241kts
09-Jun-19 18:45 35.242634 -115.943395 61 15160ft 236kts
09-Jun-19 18:46 35.272007 -115.876186 61 14238ft 231kts
09-Jun-19 18:47 35.302972 -115.805594 58 13236ft 219kts
09-Jun-19 18:48 35.340284 -115.748261 48 12237ft 211kts
09-Jun-19 18:49 35.379217 -115.695588 47 11236ft 207kts
09-Jun-19 18:50 35.418049 -115.643690 47 10234ft 206kts
09-Jun-19 18:51 35.456174 -115.592761 47 9784ft 203kts
09-Jun-19 18:52 35.495341 -115.540407 47 9779ft 207kts
09-Jun-19 18:53 35.532395 -115.490670 47 9779ft 190kts
09-Jun-19 18:54 35.567833 -115.443105 47 9586ft 198kts
09-Jun-19 18:55 35.615964 -115.401752 17 8805ft 231kts
09-Jun-19 18:56 35.671712 -115.368064 22 8034ft 207kts
09-Jun-19 18:57 35.720404 -115.349349 0 7225ft 173kts
09-Jun-19 18:58 35.764754 -115.343885 14 6882ft 142kts
09-Jun-19 18:59 35.798043 -115.328641 22 6883ft 115kts
09-Jun-19 19:00 35.836170 -115.306505 25 6706ft 182kts
09-Jun-19 19:01 35.881292 -115.280641 23 6695ft 174kts
09-Jun-19 19:02 35.921822 -115.257962 24 6105ft 157kts
09-Jun-19 19:03 35.958092 -115.237305 25 5090ft 147kts
09-Jun-19 19:04 35.996099 -115.215562 25 4130ft 151kts
09-Jun-19 19:05 36.033862 -115.193896 24 3217ft 146kts
09-Jun-19 19:06 36.067804 -115.174407 23 2406ft 120kts
09-Jun-19 19:07 36.088239 -115.162905 26 2119ft 10kts
09-Jun-19 19:08 36.089295 -115.163247 293 2119ft 1kts
09-Jun-19 19:09 36.091642 -115.165006 323 2119ft 3kts
09-Jun-19 19:10 36.091605 -115.165183 125 2119ft 0kts
09-Jun-19 19:11 36.091605 -115.165183 125 2119ft 0kts

Navigation Log

Ident Type
Flight plan parsing failed, navigation log unavailable